Time;durP1;ratioP1;P1;durP2;ratioP2;P2;SDS_P1;SDS_P2;PMS_P1;PMS_P2;Temp;Humidity;BMP_temperature;BMP_pressure;BME280_temperature;BME280_humidity;BME280_pressure;Samples;Min_cycle;Max_cycle;Signal;HPM_P1;HPM_P2
2021/08/26 00:06:44;;;;;;;6.40;3.63;;;;;;;;;;5032498;28;20474;-51
2021/08/26 00:09:10;;;;;;;8.95;4.60;;;;;;;;;;5032365;28;20022;-51
2021/08/26 00:11:37;;;;;;;12.38;4.82;;;;;;;;;;5031720;28;20087;-51
2021/08/26 00:14:05;;;;;;;8.98;4.38;;;;;;;;;;5031869;28;20029;-51
2021/08/26 00:16:32;;;;;;;10.40;3.95;;;;;;;;;;5032538;28;20025;-51
2021/08/26 00:18:58;;;;;;;8.88;4.45;;;;;;;;;;5032426;28;20477;-51
2021/08/26 00:21:27;;;;;;;8.35;3.80;;;;;;;;;;5031124;28;20033;-51
2021/08/26 00:23:53;;;;;;;10.75;4.07;;;;;;;;;;5032490;28;20040;-52
2021/08/26 00:26:19;;;;;;;12.43;4.22;;;;;;;;;;5031895;28;20404;-51
2021/08/26 00:28:45;;;;;;;9.30;4.22;;;;;;;;;;5031842;28;20036;-51
2021/08/26 00:31:11;;;;;;;9.48;4.00;;;;;;;;;;5031755;28;20026;-51
2021/08/26 00:33:37;;;;;;;9.15;3.72;;;;;;;;;;5032544;28;20069;-52
2021/08/26 00:36:03;;;;;;;9.52;4.07;;;;;;;;;;5031536;28;20120;-51
2021/08/26 00:38:29;;;;;;;11.88;4.63;;;;;;;;;;5031865;28;20444;-52
2021/08/26 00:40:59;;;;;;;9.73;4.03;;;;;;;;;;5031722;28;20021;-51
2021/08/26 00:43:26;;;;;;;9.90;4.60;;;;;;;;;;5031667;28;20451;-52
2021/08/26 00:45:52;;;;;;;12.35;3.70;;;;;;;;;;5032416;28;20021;-52
2021/08/26 00:48:21;;;;;;;10.38;4.35;;;;;;;;;;5032307;28;20032;-51
2021/08/26 00:50:49;;;;;;;13.57;3.83;;;;;;;;;;5030543;28;20367;-51
2021/08/26 00:53:15;;;;;;;9.75;4.43;;;;;;;;;;5032677;28;20036;-51
2021/08/26 00:55:41;;;;;;;8.82;3.67;;;;;;;;;;5032090;28;20022;-51
2021/08/26 00:58:07;;;;;;;9.10;3.97;;;;;;;;;;5031589;28;20179;-51
2021/08/26 01:00:34;;;;;;;9.57;4.32;;;;;;;;;;5031527;28;20120;-52
2021/08/26 01:03:01;;;;;;;8.20;3.80;;;;;;;;;;5032064;28;20029;-51
2021/08/26 01:05:31;;;;;;;10.77;4.22;;;;;;;;;;5032552;28;20017;-51
2021/08/26 01:08:03;;;;;;;10.65;3.85;;;;;;;;;;5035453;28;20079;-51
2021/08/26 01:10:29;;;;;;;12.07;4.30;;;;;;;;;;5034898;28;20026;-51
2021/08/26 01:12:59;;;;;;;10.70;4.93;;;;;;;;;;5035022;28;20017;-51
2021/08/26 01:15:26;;;;;;;17.53;4.53;;;;;;;;;;5034100;28;20021;-51
2021/08/26 01:17:53;;;;;;;14.43;4.55;;;;;;;;;;5034938;28;20107;-51
2021/08/26 01:20:19;;;;;;;10.27;4.57;;;;;;;;;;5035529;28;20048;-51
2021/08/26 01:22:45;;;;;;;9.80;4.28;;;;;;;;;;5034055;28;20059;-51
2021/08/26 01:25:13;;;;;;;9.93;4.70;;;;;;;;;;5035052;28;20034;-51
2021/08/26 01:27:44;;;;;;;9.52;3.70;;;;;;;;;;5035320;28;20028;-52
2021/08/26 01:30:14;;;;;;;12.57;4.57;;;;;;;;;;5031774;28;20435;-51
2021/08/26 01:32:40;;;;;;;;;;;;;;;;;;5015014;28;20418;-51
2021/08/26 01:35:06;;;;;;;8.20;3.70;;;;;;;;;;5016910;28;19905;-51
2021/08/26 01:37:32;;;;;;;11.18;3.83;;;;;;;;;;5034158;28;20471;-51
2021/08/26 01:39:59;;;;;;;8.63;4.10;;;;;;;;;;5034869;28;20035;-52
2021/08/26 01:42:28;;;;;;;8.80;4.25;;;;;;;;;;5033983;28;20021;-51
2021/08/26 01:44:55;;;;;;;7.35;3.70;;;;;;;;;;5034767;28;20037;-51
2021/08/26 01:47:21;;;;;;;10.05;3.78;;;;;;;;;;5035224;28;20049;-52
2021/08/26 01:49:48;;;;;;;6.63;3.50;;;;;;;;;;5034403;28;20105;-51
2021/08/26 01:52:15;;;;;;;10.80;3.78;;;;;;;;;;5033400;28;20029;-52
2021/08/26 01:54:44;;;;;;;11.90;3.67;;;;;;;;;;5034894;28;20499;-52
2021/08/26 01:57:10;;;;;;;7.47;3.78;;;;;;;;;;5034337;28;20075;-52
2021/08/26 01:59:36;;;;;;;12.27;4.07;;;;;;;;;;5033749;28;20029;-51
2021/08/26 02:02:02;;;;;;;9.15;4.43;;;;;;;;;;5034370;28;20075;-51
2021/08/26 02:04:28;;;;;;;9.57;3.45;;;;;;;;;;5034718;28;20095;-51
2021/08/26 02:06:54;;;;;;;7.55;3.65;;;;;;;;;;5033745;28;20445;-51
2021/08/26 02:09:20;;;;;;;8.90;4.00;;;;;;;;;;5034343;28;20032;-51
2021/08/26 02:11:46;;;;;;;9.73;3.35;;;;;;;;;;5033836;28;20028;-51
2021/08/26 02:14:12;;;;;;;9.82;4.13;;;;;;;;;;5032444;28;20030;-51
2021/08/26 02:16:38;;;;;;;7.38;3.67;;;;;;;;;;5033890;28;20036;-51
2021/08/26 02:19:03;;;;;;;11.75;4.40;;;;;;;;;;5033406;28;20112;-51
2021/08/26 02:21:29;;;;;;;8.02;3.90;;;;;;;;;;5038140;28;20041;-52
2021/08/26 02:23:56;;;;;;;14.15;4.32;;;;;;;;;;5034031;28;20075;-52
2021/08/26 02:26:22;;;;;;;7.47;3.47;;;;;;;;;;5034136;28;20535;-52
2021/08/26 02:28:48;;;;;;;8.68;4.10;;;;;;;;;;5034012;28;20104;-52
2021/08/26 02:31:14;;;;;;;9.68;3.65;;;;;;;;;;5032968;28;20022;-51
2021/08/26 02:33:40;;;;;;;10.10;4.55;;;;;;;;;;5033723;28;20037;-51
2021/08/26 02:36:06;;;;;;;10.05;4.40;;;;;;;;;;5033030;28;20028;-51
2021/08/26 02:38:32;;;;;;;11.13;4.20;;;;;;;;;;5033544;28;20387;-51
2021/08/26 02:40:58;;;;;;;10.63;4.38;;;;;;;;;;5033147;28;20101;-51
2021/08/26 02:43:24;;;;;;;14.95;4.50;;;;;;;;;;5033265;28;20045;-51
2021/08/26 02:45:50;;;;;;;8.75;3.58;;;;;;;;;;5033721;28;20514;-51
2021/08/26 02:48:16;;;;;;;7.35;3.35;;;;;;;;;;5033617;28;20033;-51
2021/08/26 02:50:42;;;;;;;8.52;3.65;;;;;;;;;;5032797;28;20053;-51
2021/08/26 02:53:08;;;;;;;11.68;4.03;;;;;;;;;;5033078;28;20060;-51
2021/08/26 02:55:34;;;;;;;13.30;3.70;;;;;;;;;;5033340;28;20018;-51
2021/08/26 02:58:00;;;;;;;11.07;3.92;;;;;;;;;;5033633;28;20091;-51
2021/08/26 03:00:26;;;;;;;10.40;3.63;;;;;;;;;;5032352;28;20033;-52
2021/08/26 03:02:52;;;;;;;5.97;3.45;;;;;;;;;;5033722;28;20148;-51
2021/08/26 03:05:18;;;;;;;9.73;4.05;;;;;;;;;;5032997;28;20461;-51
2021/08/26 03:07:44;;;;;;;9.23;4.00;;;;;;;;;;5032669;28;20356;-51
2021/08/26 03:10:10;;;;;;;10.70;3.97;;;;;;;;;;5032913;28;20032;-51
2021/08/26 03:12:36;;;;;;;10.27;4.07;;;;;;;;;;5032845;28;20057;-51
2021/08/26 03:15:03;;;;;;;13.55;4.32;;;;;;;;;;5031326;28;20052;-51
2021/08/26 03:17:29;;;;;;;9.00;3.97;;;;;;;;;;5032667;28;20047;-51
2021/08/26 03:19:55;;;;;;;9.27;4.00;;;;;;;;;;5032967;28;20439;-51
2021/08/26 03:22:21;;;;;;;8.75;3.65;;;;;;;;;;5031927;28;20060;-51
2021/08/26 03:24:47;;;;;;;8.07;3.95;;;;;;;;;;5033150;28;20451;-51
2021/08/26 03:27:13;;;;;;;9.60;3.50;;;;;;;;;;5032956;28;20044;-51
2021/08/26 03:29:39;;;;;;;8.45;3.92;;;;;;;;;;5031914;28;20108;-52
2021/08/26 03:32:05;;;;;;;8.45;4.10;;;;;;;;;;5032256;28;20113;-52
2021/08/26 03:34:31;;;;;;;11.30;4.22;;;;;;;;;;5033007;28;20471;-51
2021/08/26 03:36:57;;;;;;;13.07;4.07;;;;;;;;;;5032078;28;20029;-52
2021/08/26 03:39:23;;;;;;;9.60;3.65;;;;;;;;;;5032552;28;20035;-51
2021/08/26 03:41:49;;;;;;;20.63;4.20;;;;;;;;;;5032614;28;20021;-51
2021/08/26 03:44:15;;;;;;;11.93;3.65;;;;;;;;;;5032490;28;20033;-51
2021/08/26 03:46:41;;;;;;;21.88;4.03;;;;;;;;;;5032466;28;20101;-51
2021/08/26 03:49:07;;;;;;;10.75;4.45;;;;;;;;;;5032391;28;20032;-51
2021/08/26 03:51:33;;;;;;;11.10;4.55;;;;;;;;;;5032430;28;20405;-51
2021/08/26 03:53:59;;;;;;;8.30;3.78;;;;;;;;;;5032239;28;20029;-51
2021/08/26 03:56:25;;;;;;;8.02;3.90;;;;;;;;;;5033175;28;20071;-51
2021/08/26 03:58:51;;;;;;;15.30;3.60;;;;;;;;;;5032589;28;20332;-51
2021/08/26 04:01:17;;;;;;;7.47;3.55;;;;;;;;;;5031154;28;20029;-51
2021/08/26 04:03:43;;;;;;;8.30;4.18;;;;;;;;;;5032523;28;20116;-51
2021/08/26 04:06:09;;;;;;;9.50;3.90;;;;;;;;;;5032623;28;20099;-51
2021/08/26 04:08:35;;;;;;;9.25;3.85;;;;;;;;;;5032002;28;20037;-51
2021/08/26 04:11:01;;;;;;;13.07;4.40;;;;;;;;;;5031782;28;20358;-51
2021/08/26 04:13:27;;;;;;;10.90;4.00;;;;;;;;;;5032668;28;20018;-51
2021/08/26 04:15:53;;;;;;;6.95;3.72;;;;;;;;;;5024127;28;20025;-51
2021/08/26 04:18:19;;;;;;;10.65;4.13;;;;;;;;;;5030302;28;20039;-52
2021/08/26 04:20:45;;;;;;;10.27;3.90;;;;;;;;;;5031778;28;20014;-51
2021/08/26 04:23:11;;;;;;;8.70;4.00;;;;;;;;;;5031350;28;20455;-51
2021/08/26 04:25:37;;;;;;;8.27;3.42;;;;;;;;;;5032544;28;20041;-52
2021/08/26 04:28:04;;;;;;;8.57;3.88;;;;;;;;;;5032262;28;20029;-52
2021/08/26 04:30:30;;;;;;;8.60;4.22;;;;;;;;;;5031559;28;20851;-52
2021/08/26 04:32:56;;;;;;;8.10;4.40;;;;;;;;;;5031959;28;20029;-52
2021/08/26 04:35:22;;;;;;;6.90;3.78;;;;;;;;;;5032547;28;20028;-51
2021/08/26 04:37:48;;;;;;;12.00;3.83;;;;;;;;;;5030871;28;20033;-51
2021/08/26 04:40:14;;;;;;;11.50;4.65;;;;;;;;;;5033943;28;20509;-51
2021/08/26 04:42:40;;;;;;;8.35;3.65;;;;;;;;;;5026236;28;20408;-51
2021/08/26 04:45:06;;;;;;;12.10;5.07;;;;;;;;;;5034771;28;20117;-51
2021/08/26 04:47:32;;;;;;;12.20;4.45;;;;;;;;;;5035958;28;20100;-51
2021/08/26 04:49:58;;;;;;;13.65;4.57;;;;;;;;;;5035303;28;20108;-52
2021/08/26 04:52:24;;;;;;;9.85;4.60;;;;;;;;;;5034255;28;20021;-51
2021/08/26 04:54:50;;;;;;;11.32;5.00;;;;;;;;;;5036182;28;20025;-51
2021/08/26 04:57:16;;;;;;;18.95;4.75;;;;;;;;;;5035801;28;20018;-51
2021/08/26 04:59:42;;;;;;;10.43;4.35;;;;;;;;;;5034761;28;20402;-51
2021/08/26 05:02:08;;;;;;;15.25;5.03;;;;;;;;;;5035324;28;20049;-51
2021/08/26 05:04:34;;;;;;;11.02;4.60;;;;;;;;;;5035881;28;20064;-51
2021/08/26 05:07:00;;;;;;;7.20;4.05;;;;;;;;;;5033669;28;20049;-51
2021/08/26 05:09:26;;;;;;;11.20;4.30;;;;;;;;;;5034439;28;20459;-52
2021/08/26 05:11:55;;;;;;;13.25;3.95;;;;;;;;;;5035113;28;20025;-52
2021/08/26 05:14:21;;;;;;;9.15;4.60;;;;;;;;;;5034995;28;20036;-51
2021/08/26 05:16:47;;;;;;;14.38;5.35;;;;;;;;;;5035405;28;20041;-51
2021/08/26 05:19:13;;;;;;;11.32;5.03;;;;;;;;;;5034761;28;20069;-51
2021/08/26 05:21:39;;;;;;;11.57;4.80;;;;;;;;;;5035266;28;20026;-52
2021/08/26 05:24:05;;;;;;;14.63;5.00;;;;;;;;;;5033759;28;20359;-52
2021/08/26 05:26:31;;;;;;;10.60;4.82;;;;;;;;;;5035662;28;20159;-52
2021/08/26 05:28:57;;;;;;;16.30;5.38;;;;;;;;;;5034543;28;20104;-51
2021/08/26 05:31:23;;;;;;;13.13;4.78;;;;;;;;;;5034535;28;20037;-52
2021/08/26 05:33:49;;;;;;;10.73;5.60;;;;;;;;;;5034948;28;20032;-52
2021/08/26 05:36:15;;;;;;;12.73;4.57;;;;;;;;;;5035534;28;20778;-52
2021/08/26 05:38:41;;;;;;;10.93;4.68;;;;;;;;;;5034287;28;20092;-51
2021/08/26 05:41:07;;;;;;;14.18;4.80;;;;;;;;;;5034612;28;20022;-52
2021/08/26 05:43:33;;;;;;;10.25;4.53;;;;;;;;;;5034916;28;20037;-52
2021/08/26 05:45:59;;;;;;;14.38;5.07;;;;;;;;;;5034349;28;20482;-52
2021/08/26 05:48:25;;;;;;;11.23;5.10;;;;;;;;;;5034563;28;20643;-52
2021/08/26 05:50:51;;;;;;;9.70;4.90;;;;;;;;;;5033370;28;20029;-52
2021/08/26 05:53:17;;;;;;;6.95;3.90;;;;;;;;;;5033891;28;20447;-51
2021/08/26 05:55:43;;;;;;;11.23;4.95;;;;;;;;;;5034724;28;20056;-51
2021/08/26 05:58:09;;;;;;;12.27;5.40;;;;;;;;;;5034649;28;20029;-51
2021/08/26 06:00:35;;;;;;;8.82;3.90;;;;;;;;;;5033226;28;20025;-52
2021/08/26 06:03:01;;;;;;;8.02;4.72;;;;;;;;;;5034527;28;20029;-54
2021/08/26 06:05:27;;;;;;;18.00;4.50;;;;;;;;;;5034684;28;20108;-51
2021/08/26 06:07:53;;;;;;;8.48;4.57;;;;;;;;;;5032632;28;20037;-51
2021/08/26 06:10:19;;;;;;;12.05;5.40;;;;;;;;;;5033549;28;20060;-51
2021/08/26 06:12:45;;;;;;;8.75;4.55;;;;;;;;;;5034066;28;20041;-51
2021/08/26 06:15:12;;;;;;;8.63;4.28;;;;;;;;;;5033500;28;20570;-51
2021/08/26 06:17:38;;;;;;;9.32;4.10;;;;;;;;;;5034356;28;20056;-52
2021/08/26 06:20:06;;;;;;;10.43;5.25;;;;;;;;;;5033891;28;20025;-51
2021/08/26 06:22:32;;;;;;;15.32;5.20;;;;;;;;;;5033813;28;20021;-51
2021/08/26 06:24:58;;;;;;;19.65;5.65;;;;;;;;;;5033478;28;20040;-51
2021/08/26 06:27:24;;;;;;;16.50;5.93;;;;;;;;;;5034105;28;20359;-52
2021/08/26 06:29:50;;;;;;;21.27;5.40;;;;;;;;;;5032905;28;20029;-51
2021/08/26 06:32:17;;;;;;;16.63;4.60;;;;;;;;;;5033820;28;20099;-52
2021/08/26 06:34:43;;;;;;;13.85;5.43;;;;;;;;;;5034114;28;20049;-51
2021/08/26 06:37:09;;;;;;;23.10;4.40;;;;;;;;;;5033951;28;20033;-51
2021/08/26 06:39:35;;;;;;;15.85;5.63;;;;;;;;;;5032342;28;20371;-51
2021/08/26 06:42:01;;;;;;;17.23;4.63;;;;;;;;;;5033723;28;20029;-52
2021/08/26 06:44:27;;;;;;;11.52;5.15;;;;;;;;;;5032969;28;20029;-51
2021/08/26 06:46:53;;;;;;;10.90;4.20;;;;;;;;;;5034056;28;20434;-52
2021/08/26 06:49:19;;;;;;;11.88;4.72;;;;;;;;;;5033627;28;20021;-52
2021/08/26 06:51:45;;;;;;;13.77;4.68;;;;;;;;;;5033502;28;20029;-51
2021/08/26 06:54:11;;;;;;;13.60;4.97;;;;;;;;;;5032369;28;20030;-51
2021/08/26 06:56:37;;;;;;;11.43;4.47;;;;;;;;;;5033589;28;20025;-51
2021/08/26 06:59:03;;;;;;;13.70;4.45;;;;;;;;;;5032759;28;20053;-51
2021/08/26 07:01:29;;;;;;;11.63;5.03;;;;;;;;;;5033017;28;20118;-51
2021/08/26 07:03:55;;;;;;;10.15;4.72;;;;;;;;;;5033320;28;20036;-51
2021/08/26 07:06:21;;;;;;;11.32;4.80;;;;;;;;;;5033718;28;20028;-51
2021/08/26 07:08:47;;;;;;;15.98;5.50;;;;;;;;;;5030595;28;20056;-51
2021/08/26 07:11:13;;;;;;;13.93;5.10;;;;;;;;;;5033038;28;20542;-51
2021/08/26 07:13:39;;;;;;;10.50;4.72;;;;;;;;;;5033292;28;20025;-52
2021/08/26 07:16:05;;;;;;;12.23;4.13;;;;;;;;;;5033133;28;20026;-51
2021/08/26 07:18:31;;;;;;;12.50;4.93;;;;;;;;;;5032889;28;20447;-52
2021/08/26 07:20:57;;;;;;;18.83;6.32;;;;;;;;;;5032802;28;20022;-51
2021/08/26 07:23:23;;;;;;;13.60;5.63;;;;;;;;;;5032871;28;20034;-51
2021/08/26 07:25:49;;;;;;;10.77;5.43;;;;;;;;;;5032200;28;20419;-51
2021/08/26 07:28:15;;;;;;;10.02;4.50;;;;;;;;;;5032845;28;20439;-51
2021/08/26 07:30:41;;;;;;;10.45;4.45;;;;;;;;;;5031676;28;20022;-51
2021/08/26 07:33:07;;;;;;;9.45;4.40;;;;;;;;;;5033329;28;20113;-52
2021/08/26 07:35:33;;;;;;;8.02;4.40;;;;;;;;;;5033101;28;20109;-51
2021/08/26 07:37:59;;;;;;;10.68;4.40;;;;;;;;;;5032505;28;20360;-51
2021/08/26 07:40:25;;;;;;;10.90;3.92;;;;;;;;;;5031300;28;20095;-51
2021/08/26 07:42:51;;;;;;;10.65;4.97;;;;;;;;;;5032552;28;20057;-51
2021/08/26 07:45:17;;;;;;;11.98;4.53;;;;;;;;;;5032382;28;20057;-51
2021/08/26 07:47:43;;;;;;;11.23;4.95;;;;;;;;;;5032811;28;20402;-52
2021/08/26 07:50:10;;;;;;;11.75;4.90;;;;;;;;;;5032019;28;20025;-51
2021/08/26 07:52:36;;;;;;;11.27;4.60;;;;;;;;;;5032500;28;20017;-51
2021/08/26 07:55:03;;;;;;;11.98;5.10;;;;;;;;;;5031743;28;20044;-52
2021/08/26 07:57:29;;;;;;;16.38;4.93;;;;;;;;;;5032740;28;20025;-51
2021/08/26 07:59:55;;;;;;;15.27;5.38;;;;;;;;;;5031838;28;20120;-52
2021/08/26 08:02:21;;;;;;;11.18;4.85;;;;;;;;;;5032232;28;20394;-51
2021/08/26 08:04:47;;;;;;;8.80;4.60;;;;;;;;;;5032899;28;20022;-51
2021/08/26 08:07:13;;;;;;;13.75;5.15;;;;;;;;;;5030712;28;20041;-51
2021/08/26 08:09:39;;;;;;;12.48;5.45;;;;;;;;;;5031561;28;20159;-51
2021/08/26 08:12:05;;;;;;;12.20;5.13;;;;;;;;;;5032059;28;20049;-51
2021/08/26 08:14:31;;;;;;;10.32;4.95;;;;;;;;;;5033891;28;20029;-51
2021/08/26 08:16:58;;;;;;;12.40;5.32;;;;;;;;;;5035720;28;20017;-52
2021/08/26 08:19:25;;;;;;;15.90;6.20;;;;;;;;;;5036119;28;20033;-51
2021/08/26 08:21:51;;;;;;;11.23;4.65;;;;;;;;;;5035906;28;20036;-51
2021/08/26 08:24:17;;;;;;;9.60;4.45;;;;;;;;;;5035468;28;20422;-51
2021/08/26 08:26:43;;;;;;;13.20;4.95;;;;;;;;;;5036276;28;20223;-52
2021/08/26 08:29:09;;;;;;;8.98;4.47;;;;;;;;;;5036638;28;20072;-51
2021/08/26 08:31:35;;;;;;;11.38;4.80;;;;;;;;;;5035634;28;20028;-51
2021/08/26 08:34:01;;;;;;;10.25;4.72;;;;;;;;;;5035970;28;20021;-51
2021/08/26 08:36:27;;;;;;;14.65;5.25;;;;;;;;;;5035864;28;20037;-51
2021/08/26 08:38:53;;;;;;;8.38;4.55;;;;;;;;;;5036175;28;20485;-51
2021/08/26 08:41:20;;;;;;;11.57;4.82;;;;;;;;;;5034803;28;20030;-52
2021/08/26 08:43:46;;;;;;;9.07;4.68;;;;;;;;;;5036108;28;20025;-51
2021/08/26 08:46:13;;;;;;;9.05;4.72;;;;;;;;;;5035440;28;20076;-51
2021/08/26 08:48:40;;;;;;;8.65;4.15;;;;;;;;;;5035997;28;20103;-52
2021/08/26 08:51:08;;;;;;;13.63;4.68;;;;;;;;;;5035565;28;20048;-51
2021/08/26 08:53:34;;;;;;;12.95;5.70;;;;;;;;;;5035955;28;20083;-52
2021/08/26 08:56:02;;;;;;;11.15;4.70;;;;;;;;;;5035135;28;20036;-51
2021/08/26 08:58:28;;;;;;;12.90;5.25;;;;;;;;;;5036056;28;20459;-51
2021/08/26 09:00:54;;;;;;;10.48;5.25;;;;;;;;;;5034496;28;20021;-52
2021/08/26 09:03:20;;;;;;;9.98;4.35;;;;;;;;;;5035242;28;20025;-51
2021/08/26 09:05:56;;;;;;;10.85;5.30;;;;;;;;;;5035976;28;20017;-52
2021/08/26 09:08:23;;;;;;;12.70;5.32;;;;;;;;;;5034369;28;20044;-52
2021/08/26 09:10:53;;;;;;;11.23;5.32;;;;;;;;;;5033910;28;20049;-52
2021/08/26 09:13:29;;;;;;;15.60;5.90;;;;;;;;;;5035160;28;20091;-52
2021/08/26 09:15:56;;;;;;;10.10;4.60;;;;;;;;;;5034961;28;20067;-51
2021/08/26 09:18:22;;;;;;;15.38;6.13;;;;;;;;;;5035318;28;20459;-52
2021/08/26 09:20:49;;;;;;;9.85;4.78;;;;;;;;;;5035123;28;20052;-52
2021/08/26 09:23:15;;;;;;;9.20;4.80;;;;;;;;;;5035423;28;20029;-52
2021/08/26 09:25:43;;;;;;;10.57;5.05;;;;;;;;;;5032808;28;20029;-52
2021/08/26 09:28:25;;;;;;;11.38;5.40;;;;;;;;;;5035378;28;20025;-51
2021/08/26 09:31:08;;;;;;;13.45;5.50;;;;;;;;;;5034137;28;20025;-51
2021/08/26 09:33:45;;;;;;;7.70;4.10;;;;;;;;;;5035107;28;20079;-51
2021/08/26 09:36:17;;;;;;;10.48;5.10;;;;;;;;;;5034576;28;20034;-52
2021/08/26 09:38:43;;;;;;;12.27;4.80;;;;;;;;;;5035097;28;20088;-52
2021/08/26 09:41:09;;;;;;;12.18;4.57;;;;;;;;;;5033570;28;20026;-52
2021/08/26 09:43:35;;;;;;;8.75;4.78;;;;;;;;;;5034687;28;20029;-51
2021/08/26 09:46:01;;;;;;;12.70;4.78;;;;;;;;;;5034423;28;20095;-52
2021/08/26 09:48:27;;;;;;;10.55;4.82;;;;;;;;;;5034870;28;20451;-51
2021/08/26 09:50:54;;;;;;;14.38;5.78;;;;;;;;;;5034372;28;20021;-52
2021/08/26 09:53:21;;;;;;;15.02;6.07;;;;;;;;;;5034739;28;20117;-51
2021/08/26 09:56:03;;;;;;;14.48;6.10;;;;;;;;;;5033794;28;20402;-52
2021/08/26 09:58:30;;;;;;;13.10;5.15;;;;;;;;;;5035005;28;20072;-51
2021/08/26 10:01:08;;;;;;;12.75;5.10;;;;;;;;;;5033061;28;20024;-51
2021/08/26 10:03:34;;;;;;;14.13;5.28;;;;;;;;;;5034772;28;20033;-52
2021/08/26 10:06:00;;;;;;;10.38;5.32;;;;;;;;;;5034538;28;20104;-51
2021/08/26 10:08:26;;;;;;;11.45;5.13;;;;;;;;;;5032835;28;20117;-51
2021/08/26 10:10:52;;;;;;;10.02;5.40;;;;;;;;;;5032411;28;20092;-51
2021/08/26 10:13:19;;;;;;;11.50;5.30;;;;;;;;;;5034771;28;20128;-52
2021/08/26 10:15:46;;;;;;;10.57;5.60;;;;;;;;;;5033892;28;20025;-51
2021/08/26 10:18:13;;;;;;;12.23;5.85;;;;;;;;;;5034235;28;20071;-52
2021/08/26 10:20:41;;;;;;;16.83;5.88;;;;;;;;;;5033288;28;20355;-51
2021/08/26 10:23:09;;;;;;;9.90;5.35;;;;;;;;;;5034714;28;20026;-51
2021/08/26 10:25:40;;;;;;;11.70;5.40;;;;;;;;;;5032592;28;20173;-51
2021/08/26 10:28:07;;;;;;;10.80;4.90;;;;;;;;;;5034338;28;20505;-51
2021/08/26 10:30:35;;;;;;;12.18;6.32;;;;;;;;;;5033361;28;20044;-53
2021/08/26 10:33:08;;;;;;;11.02;4.75;;;;;;;;;;5033790;28;20021;-51
2021/08/26 10:35:34;;;;;;;13.07;5.78;;;;;;;;;;5033842;28;20543;-52
2021/08/26 10:38:00;;;;;;;13.80;5.93;;;;;;;;;;5033325;28;20044;-51
2021/08/26 10:40:29;;;;;;;10.85;5.93;;;;;;;;;;5032966;28;20451;-52
2021/08/26 10:42:55;;;;;;;12.80;5.00;;;;;;;;;;5024943;28;20092;-51
2021/08/26 10:45:25;;;;;;;10.07;5.38;;;;;;;;;;5030545;28;20017;-52
2021/08/26 10:47:56;;;;;;;13.30;5.85;;;;;;;;;;5033078;28;20025;-52
2021/08/26 10:50:32;;;;;;;17.85;6.03;;;;;;;;;;5033354;28;20083;-52
2021/08/26 10:53:04;;;;;;;13.40;5.45;;;;;;;;;;5014016;28;20117;-52
2021/08/26 10:55:31;;;;;;;15.77;5.63;;;;;;;;;;5014341;28;20044;-52
2021/08/26 10:58:16;;;;;;;12.63;4.82;;;;;;;;;;5032177;28;20037;-52
2021/08/26 11:00:43;;;;;;;11.02;5.72;;;;;;;;;;5032440;28;20376;-52
2021/08/26 11:03:09;;;;;;;12.63;5.43;;;;;;;;;;5033253;28;20033;-52
2021/08/26 11:05:36;;;;;;;10.27;5.10;;;;;;;;;;5033871;28;20061;-51
2021/08/26 11:08:21;;;;;;;15.02;5.05;;;;;;;;;;5032565;28;20127;-52
2021/08/26 11:10:47;;;;;;;9.70;6.00;;;;;;;;;;5031659;28;20060;-51
2021/08/26 11:13:32;;;;;;;12.40;5.32;;;;;;;;;;5033357;28;20030;-52
2021/08/26 11:16:18;;;;;;;12.25;5.18;;;;;;;;;;5032700;28;20476;-52
2021/08/26 11:18:44;;;;;;;10.65;5.22;;;;;;;;;;5032840;28;20034;-51
2021/08/26 11:21:10;;;;;;;9.85;5.53;;;;;;;;;;5032677;28;20022;-52
2021/08/26 11:23:45;;;;;;;9.73;5.80;;;;;;;;;;5032929;28;20359;-52
2021/08/26 11:26:30;;;;;;;9.02;5.20;;;;;;;;;;5032373;28;20033;-52
2021/08/26 11:29:16;;;;;;;9.48;5.82;;;;;;;;;;5032899;28;20459;-51
2021/08/26 11:31:43;;;;;;;11.60;5.07;;;;;;;;;;5031668;28;20032;-52
2021/08/26 11:34:09;;;;;;;11.38;4.68;;;;;;;;;;5032916;28;20057;-52
2021/08/26 11:36:35;;;;;;;11.63;4.80;;;;;;;;;;5032984;28;20407;-51
2021/08/26 11:39:01;;;;;;;11.02;4.72;;;;;;;;;;5032801;28;20435;-51
2021/08/26 11:41:27;;;;;;;9.60;4.35;;;;;;;;;;5031772;28;20055;-51
2021/08/26 11:43:53;;;;;;;9.57;4.72;;;;;;;;;;5032919;28;20025;-51
2021/08/26 11:46:20;;;;;;;10.68;4.65;;;;;;;;;;5031918;28;20021;-52
2021/08/26 11:48:50;;;;;;;8.95;4.45;;;;;;;;;;5024144;28;20053;-52
2021/08/26 11:51:16;;;;;;;;;;;;;;;;;;5033037;28;20098;-51
2021/08/26 11:53:42;;;;;;;8.75;4.50;;;;;;;;;;5032513;28;20335;-51
2021/08/26 11:56:08;;;;;;;6.75;4.10;;;;;;;;;;5032316;28;20037;-51
2021/08/26 11:58:34;;;;;;;8.07;3.47;;;;;;;;;;5032893;28;20029;-51
2021/08/26 12:01:00;;;;;;;5.65;2.90;;;;;;;;;;5031795;28;20245;-52
2021/08/26 12:03:27;;;;;;;4.57;2.85;;;;;;;;;;5031725;28;20045;-52
2021/08/26 12:05:53;;;;;;;4.88;2.33;;;;;;;;;;5032821;28;20021;-51
2021/08/26 12:08:20;;;;;;;3.58;1.65;;;;;;;;;;5031613;28;20029;-52
2021/08/26 12:10:47;;;;;;;2.63;1.77;;;;;;;;;;5032129;28;20029;-51
2021/08/26 12:13:14;;;;;;;3.35;2.08;;;;;;;;;;5031573;28;20033;-52
2021/08/26 12:15:42;;;;;;;2.90;2.03;;;;;;;;;;5032917;28;20037;-52
2021/08/26 12:18:10;;;;;;;1.85;1.40;;;;;;;;;;5032086;28;20124;-51
2021/08/26 12:20:40;;;;;;;1.98;1.73;;;;;;;;;;5023741;28;20354;-52
2021/08/26 12:23:07;;;;;;;4.90;2.10;;;;;;;;;;5032336;28;20036;-51
2021/08/26 12:25:37;;;;;;;2.72;1.65;;;;;;;;;;5032260;28;20084;-51
2021/08/26 12:28:04;;;;;;;1.90;1.50;;;;;;;;;;5031853;28;20043;-52
2021/08/26 12:30:36;;;;;;;1.45;1.10;;;;;;;;;;5032160;28;20026;-52
2021/08/26 12:33:06;;;;;;;2.95;1.50;;;;;;;;;;5032061;28;20045;-51
2021/08/26 12:35:39;;;;;;;2.10;1.52;;;;;;;;;;5032708;28;20112;-51
2021/08/26 12:38:05;;;;;;;1.40;1.20;;;;;;;;;;5032325;28;20038;-51
2021/08/26 12:40:46;;;;;;;1.58;1.48;;;;;;;;;;5031705;28;20043;-51
2021/08/26 12:43:12;;;;;;;4.28;2.10;;;;;;;;;;5031335;28;20037;-51
2021/08/26 12:45:39;;;;;;;5.82;2.45;;;;;;;;;;5032482;28;20084;-52
2021/08/26 12:48:24;;;;;;;5.88;2.90;;;;;;;;;;5031506;28;20029;-52
2021/08/26 12:51:04;;;;;;;4.82;2.80;;;;;;;;;;5025243;28;20084;-52
2021/08/26 12:53:30;;;;;;;3.83;3.08;;;;;;;;;;5032204;28;20355;-53
2021/08/26 12:55:59;;;;;;;10.43;3.70;;;;;;;;;;5032519;28;20026;-51
2021/08/26 12:58:26;;;;;;;3.65;2.83;;;;;;;;;;5031262;28;20049;-51
2021/08/26 13:00:52;;;;;;;3.92;2.50;;;;;;;;;;5033084;28;20559;-51
2021/08/26 13:03:18;;;;;;;3.72;2.70;;;;;;;;;;5034852;28;20033;-51
2021/08/26 13:05:45;;;;;;;6.07;3.53;;;;;;;;;;5035955;28;20029;-52
2021/08/26 13:08:11;;;;;;;4.05;3.17;;;;;;;;;;5034982;28;20034;-51
2021/08/26 13:10:37;;;;;;;4.65;3.22;;;;;;;;;;5035314;28;20033;-51
2021/08/26 13:13:10;;;;;;;5.60;2.75;;;;;;;;;;5034646;28;20025;-52
2021/08/26 13:15:36;;;;;;;4.53;2.45;;;;;;;;;;5035872;28;20068;-52
2021/08/26 13:18:02;;;;;;;3.63;2.33;;;;;;;;;;5034622;28;20088;-51
2021/08/26 13:20:28;;;;;;;4.95;2.50;;;;;;;;;;5035004;28;20025;-51
2021/08/26 13:22:54;;;;;;;2.60;1.88;;;;;;;;;;5035167;28;20029;-51
2021/08/26 13:25:20;;;;;;;2.63;2.03;;;;;;;;;;5035191;28;20455;-51
2021/08/26 13:27:48;;;;;;;4.30;2.03;;;;;;;;;;5034270;28;20076;-52
2021/08/26 13:30:14;;;;;;;3.10;1.98;;;;;;;;;;5035071;28;20033;-52
2021/08/26 13:32:40;;;;;;;4.57;2.28;;;;;;;;;;5033956;28;20025;-52
2021/08/26 13:35:08;;;;;;;2.70;1.90;;;;;;;;;;5034755;28;20025;-52
2021/08/26 13:37:35;;;;;;;3.55;2.03;;;;;;;;;;5030018;28;20076;-51
2021/08/26 13:40:01;;;;;;;2.22;1.40;;;;;;;;;;5015074;28;20083;-51
2021/08/26 13:42:27;;;;;;;2.55;1.77;;;;;;;;;;5016680;28;20167;-52
2021/08/26 13:44:53;;;;;;;2.97;2.50;;;;;;;;;;5034901;28;20052;-51
2021/08/26 13:47:18;;;;;;;2.35;1.80;;;;;;;;;;5034706;28;20034;-52
2021/08/26 13:49:45;;;;;;;3.53;1.80;;;;;;;;;;5032818;28;20028;-51
2021/08/26 13:52:11;;;;;;;4.47;2.15;;;;;;;;;;5034417;28;20435;-51
2021/08/26 13:54:37;;;;;;;5.40;2.53;;;;;;;;;;5035045;28;20026;-52
2021/08/26 13:57:03;;;;;;;5.05;3.05;;;;;;;;;;5035005;28;20584;-51
2021/08/26 13:59:29;;;;;;;5.32;2.63;;;;;;;;;;5033315;28;20041;-52
2021/08/26 14:01:55;;;;;;;6.05;2.55;;;;;;;;;;5034202;28;20108;-52
2021/08/26 14:04:21;;;;;;;3.28;1.90;;;;;;;;;;5033836;28;20117;-51
2021/08/26 14:06:47;;;;;;;6.10;2.80;;;;;;;;;;5034908;28;20075;-51
2021/08/26 14:09:13;;;;;;;4.25;2.22;;;;;;;;;;5034428;28;20025;-52
2021/08/26 14:11:39;;;;;;;4.10;2.75;;;;;;;;;;5033093;28;20390;-52
2021/08/26 14:14:05;;;;;;;4.35;2.40;;;;;;;;;;5033528;28;20095;-52
2021/08/26 14:16:31;;;;;;;4.90;2.75;;;;;;;;;;5034388;28;20041;-52
2021/08/26 14:18:57;;;;;;;5.13;3.17;;;;;;;;;;5033946;28;20451;-51
2021/08/26 14:21:23;;;;;;;4.80;2.67;;;;;;;;;;5033292;28;20036;-52
2021/08/26 14:23:49;;;;;;;3.33;2.22;;;;;;;;;;5034295;28;20029;-51
2021/08/26 14:26:15;;;;;;;4.57;2.70;;;;;;;;;;5034642;28;20033;-52
2021/08/26 14:28:42;;;;;;;4.88;2.47;;;;;;;;;;5033317;28;20022;-52
2021/08/26 14:31:08;;;;;;;5.65;2.70;;;;;;;;;;5033122;28;20090;-51
2021/08/26 14:33:34;;;;;;;9.82;2.55;;;;;;;;;;5033731;28;20475;-51
2021/08/26 14:36:00;;;;;;;4.18;2.42;;;;;;;;;;5033992;28;20139;-51
2021/08/26 14:38:26;;;;;;;8.27;2.92;;;;;;;;;;5033547;28;20124;-51
2021/08/26 14:40:52;;;;;;;5.82;2.65;;;;;;;;;;5033301;28;20114;-52